createdAt,value
2022-08-22T00:01:31.243Z,94278.16
2022-08-22T00:02:54.564Z,94302.73
2022-08-22T00:03:03.864Z,94300.66
2022-08-22T00:03:07.365Z,94276.55
2022-08-22T00:03:57.653Z,94278.64
2022-08-22T00:06:24.111Z,94275.71
2022-08-22T00:08:50.543Z,94276.05
2022-08-22T00:11:16.948Z,94277.01
2022-08-22T00:13:43.411Z,94283.81
2022-08-22T00:16:09.845Z,94284.63
2022-08-22T00:18:36.279Z,94281.22
2022-08-22T00:21:02.687Z,94280.41
2022-08-22T00:23:29.089Z,94276.05
2022-08-22T00:25:55.577Z,94276.19
2022-08-22T00:28:21.983Z,94277.34
2022-08-22T00:30:50.181Z,94276.70
2022-08-22T00:33:14.877Z,94280.41
2022-08-22T00:35:44.985Z,94274.42
2022-08-22T00:38:07.847Z,94268.94
2022-08-22T00:40:34.249Z,94261.96
2022-08-22T00:43:00.652Z,94262.47
2022-08-22T00:45:27.060Z,94267.64
2022-08-22T00:47:53.468Z,94265.53
2022-08-22T00:50:19.871Z,94259.54
2022-08-22T00:52:46.288Z,94264.55
2022-08-22T00:55:12.690Z,94260.36
2022-08-22T00:57:39.101Z,94264.23
2022-08-22T01:00:05.545Z,94260.36
2022-08-22T01:02:31.978Z,94259.38
2022-08-22T01:04:58.378Z,94260.36
2022-08-22T01:07:24.843Z,94259.54
2022-08-22T01:09:51.246Z,94258.25
2022-08-22T01:12:18.944Z,94255.66
2022-08-22T01:14:44.142Z,94263.90
2022-08-22T01:17:10.577Z,94262.13
2022-08-22T01:19:36.980Z,94268.26
2022-08-22T01:22:03.443Z,94263.90
2022-08-22T01:24:29.978Z,94261.45
2022-08-22T01:26:56.412Z,94263.09
2022-08-22T01:29:28.570Z,94267.44
2022-08-22T01:31:49.279Z,94270.03
2022-08-22T01:34:15.682Z,94265.34
2022-08-22T01:36:42.147Z,94263.56
2022-08-22T01:39:08.580Z,94268.26
2022-08-22T01:41:34.987Z,94270.51
2022-08-22T01:44:01.613Z,94279.42
2022-08-22T01:46:28.086Z,94279.09
2022-08-22T01:48:54.620Z,94278.61
2022-08-22T01:51:21.056Z,94279.25
2022-08-22T01:53:47.486Z,94271.02
2022-08-22T01:56:13.923Z,94273.60
2022-08-22T01:58:40.329Z,94267.14
2022-08-22T02:01:06.831Z,94261.63
2022-08-22T02:03:33.198Z,94265.84
2022-08-22T02:05:59.625Z,94264.21
2022-08-22T02:08:26.013Z,94267.92
2022-08-22T02:10:52.432Z,94266.97
2022-08-22T02:13:18.829Z,94262.95
2022-08-22T02:15:45.285Z,94268.26
2022-08-22T02:18:11.688Z,94267.61
2022-08-22T02:20:38.088Z,94265.50
2022-08-22T02:23:04.585Z,94266.16
2022-08-22T02:25:31.031Z,94268.23
2022-08-22T02:27:57.548Z,94274.70
2022-08-22T02:30:23.883Z,94269.22
2022-08-22T02:32:50.289Z,94264.18
2022-08-22T02:35:16.753Z,94268.06
2022-08-22T02:37:43.171Z,94265.48
2022-08-22T02:40:09.673Z,94270.31
2022-08-22T02:42:35.997Z,94272.42
2022-08-22T02:45:02.486Z,94269.02
2022-08-22T02:47:28.892Z,94270.65
2022-08-22T02:49:55.353Z,94271.61
2022-08-22T02:52:21.789Z,94267.25
2022-08-22T02:54:48.221Z,94269.36
2022-08-22T02:57:14.810Z,94266.63
2022-08-22T02:59:41.192Z,94268.87
2022-08-22T03:02:07.622Z,94274.53
2022-08-22T03:04:34.056Z,94271.46
2022-08-22T03:07:02.124Z,94279.70
2022-08-22T03:09:26.923Z,94278.41
2022-08-22T03:11:53.356Z,94279.88
2022-08-22T03:14:19.790Z,94279.36
2022-08-22T03:16:46.220Z,94279.36
2022-08-22T03:19:14.949Z,94278.72
2022-08-22T03:21:39.091Z,94282.12
2022-08-22T03:24:05.523Z,94286.48
2022-08-22T03:26:31.956Z,94288.41
2022-08-22T03:28:59.338Z,94291.00
2022-08-22T03:31:24.824Z,94293.59
2022-08-22T03:33:51.257Z,94290.02
2022-08-22T03:36:17.656Z,94290.02
2022-08-22T03:38:44.060Z,94289.20
2022-08-22T03:41:10.466Z,94289.67
2022-08-22T03:43:36.888Z,94284.67
2022-08-22T03:46:03.297Z,94285.97
2022-08-22T03:48:29.704Z,94289.38
2022-08-22T03:50:56.189Z,94287.43
2022-08-22T03:53:22.621Z,94285.80
2022-08-22T03:55:49.024Z,94296.48
2022-08-22T03:58:27.690Z,94290.33
2022-08-22T04:00:41.960Z,94288.86
2022-08-22T04:03:08.324Z,94282.84
2022-08-22T04:05:34.793Z,94284.27
2022-08-22T04:08:01.200Z,94274.27
2022-08-22T04:10:27.626Z,94282.84
2022-08-22T04:12:54.036Z,94280.39
2022-08-22T04:15:20.521Z,94281.03
2022-08-22T04:17:46.932Z,94287.02
2022-08-22T04:20:13.387Z,94287.63
2022-08-22T04:22:39.800Z,94285.56
2022-08-22T04:25:08.155Z,94286.03
2022-08-22T04:27:32.649Z,94281.57
2022-08-22T04:29:59.122Z,94281.80
2022-08-22T04:32:25.557Z,94287.27
2022-08-22T04:34:51.988Z,94282.53
2022-08-22T04:37:18.402Z,94289.64
2022-08-22T04:39:44.843Z,94290.73
2022-08-22T04:42:31.873Z,94292.36
2022-08-22T04:44:37.722Z,94296.53
2022-08-22T04:47:04.156Z,94294.59
2022-08-22T04:49:30.691Z,94297.70
2022-08-22T04:51:58.360Z,94301.57
2022-08-22T04:54:23.534Z,94299.00
2022-08-22T04:56:49.941Z,94297.09
2022-08-22T04:59:16.347Z,94298.39
2022-08-22T05:01:42.840Z,94304.68
2022-08-22T05:04:09.292Z,94305.84
2022-08-22T05:06:35.691Z,94309.94
2022-08-22T05:09:02.159Z,94313.47
2022-08-22T05:11:28.592Z,94312.05
2022-08-22T05:13:55.025Z,94314.49
2022-08-22T05:16:21.450Z,94318.03
2022-08-22T05:18:47.878Z,94323.92
2022-08-22T05:21:14.326Z,94319.70
2022-08-22T05:23:40.758Z,94316.30
2022-08-22T05:26:07.176Z,94313.41
2022-08-22T05:28:33.572Z,94318.41
2022-08-22T05:31:00.122Z,94319.44
2022-08-22T05:33:26.517Z,94326.72
2022-08-22T05:35:57.715Z,94325.08
2022-08-22T05:38:19.387Z,94328.02
2022-08-22T05:40:45.806Z,94326.21
2022-08-22T05:43:12.205Z,94328.84
2022-08-22T05:45:38.619Z,94326.59
2022-08-22T05:48:05.023Z,94330.95
2022-08-22T05:50:31.431Z,94335.30
2022-08-22T05:52:57.843Z,94343.58
2022-08-22T05:55:24.276Z,94342.58
2022-08-22T05:57:50.683Z,94347.49
2022-08-22T06:00:17.174Z,94348.09
2022-08-22T06:02:43.574Z,94351.80
2022-08-22T06:05:12.145Z,94355.38
2022-08-22T06:07:36.446Z,94353.58
2022-08-22T06:10:02.859Z,94355.52
2022-08-22T06:12:29.271Z,94354.88
2022-08-22T06:14:55.683Z,94356.38
2022-08-22T06:17:22.089Z,94356.33
2022-08-22T06:19:48.529Z,94353.78
2022-08-22T06:22:17.120Z,94364.73
2022-08-22T06:24:42.753Z,94360.86
2022-08-22T06:27:07.773Z,94361.55
2022-08-22T06:29:34.185Z,94362.16
2022-08-22T06:32:00.593Z,94363.31
2022-08-22T06:34:27.039Z,94364.60
2022-08-22T06:36:53.481Z,94361.37
2022-08-22T06:39:19.888Z,94364.12
2022-08-22T06:41:46.289Z,94366.89
2022-08-22T06:44:12.705Z,94365.33
2022-08-22T06:46:39.109Z,94366.24
2022-08-22T06:49:05.525Z,94361.72
2022-08-22T06:51:31.931Z,94358.45
2022-08-22T06:53:58.408Z,94359.73
2022-08-22T06:56:24.819Z,94364.34
2022-08-22T06:58:51.227Z,94361.37
2022-08-22T07:01:17.662Z,94361.23
2022-08-22T07:03:44.077Z,94361.55
2022-08-22T07:06:10.486Z,94365.59
2022-08-22T07:08:39.153Z,94361.75
2022-08-22T07:11:03.355Z,94356.41
2022-08-22T07:13:29.778Z,94363.13
2022-08-22T07:15:56.341Z,94362.06
2022-08-22T07:18:22.661Z,94369.61
2022-08-22T07:20:49.074Z,94362.03
2022-08-22T07:23:15.545Z,94372.88
2022-08-22T07:25:41.978Z,94369.73
2022-08-22T07:28:08.458Z,94368.74
2022-08-22T07:30:34.861Z,94370.68
2022-08-22T07:33:17.730Z,94369.67
2022-08-22T07:35:27.689Z,94371.33
2022-08-22T07:37:54.159Z,94366.20
2022-08-22T07:40:20.599Z,94368.48
2022-08-22T07:42:47.678Z,94368.66
2022-08-22T07:45:13.424Z,94369.61
2022-08-22T07:47:39.853Z,94367.36
2022-08-22T07:50:06.262Z,94370.00
2022-08-22T07:52:32.721Z,94365.55
2022-08-22T07:54:59.145Z,94369.13
2022-08-22T07:57:25.566Z,94369.21
2022-08-22T07:59:51.998Z,94367.70
2022-08-22T08:02:18.432Z,94373.44
2022-08-22T08:04:44.833Z,94368.17
2022-08-22T08:07:11.263Z,94365.55
2022-08-22T08:09:37.666Z,94368.30
2022-08-22T08:12:04.086Z,94367.70
2022-08-22T08:14:30.503Z,94364.45
2022-08-22T08:16:56.984Z,94368.13
2022-08-22T08:19:23.387Z,94357.95
2022-08-22T08:21:49.818Z,94362.10
2022-08-22T08:24:16.247Z,94358.19
2022-08-22T08:26:42.713Z,94356.59
2022-08-22T08:29:09.129Z,94350.55
2022-08-22T08:31:35.581Z,94353.58
2022-08-22T08:34:01.984Z,94353.14
2022-08-22T08:36:28.471Z,94350.25
2022-08-22T08:38:54.895Z,94355.67
2022-08-22T08:41:22.742Z,94357.48
2022-08-22T08:43:47.714Z,94355.42
2022-08-22T08:46:14.159Z,94350.08
2022-08-22T08:48:40.578Z,94355.29
2022-08-22T08:51:07.001Z,94355.52
2022-08-22T08:53:33.408Z,94346.50
2022-08-22T08:55:59.828Z,94351.89
2022-08-22T08:58:26.229Z,94346.51
2022-08-22T09:00:52.673Z,94348.22
2022-08-22T09:03:27.348Z,94343.61
2022-08-22T09:05:45.484Z,94344.73
2022-08-22T09:08:12.000Z,94343.92
2022-08-22T09:10:38.321Z,94347.80
2022-08-22T09:13:11.538Z,94348.83
2022-08-22T09:15:31.148Z,94351.89
2022-08-22T09:17:57.685Z,94349.47
2022-08-22T09:20:24.470Z,94340.42
2022-08-22T09:22:50.829Z,94346.84
2022-08-22T09:25:16.805Z,94340.38
2022-08-22T09:27:43.217Z,94340.94
2022-08-22T09:30:11.510Z,94340.28
2022-08-22T09:32:36.133Z,94338.69
2022-08-22T09:35:02.572Z,94341.14
2022-08-22T09:37:28.995Z,94335.32
2022-08-22T09:39:57.315Z,94336.09
2022-08-22T09:42:21.823Z,94338.93
2022-08-22T09:44:48.261Z,94335.70
2022-08-22T09:47:14.669Z,94333.11
2022-08-22T09:49:41.108Z,94330.21
2022-08-22T09:52:15.556Z,94322.66
2022-08-22T09:54:33.953Z,94318.20
2022-08-22T09:57:00.357Z,94313.50
2022-08-22T09:59:26.774Z,94313.06
2022-08-22T10:01:53.202Z,94307.91
2022-08-22T10:04:19.767Z,94299.64
2022-08-22T10:06:46.074Z,94302.75
2022-08-22T10:09:12.522Z,94303.53
2022-08-22T10:11:39.050Z,94306.16
2022-08-22T10:14:05.349Z,94294.52
2022-08-22T10:16:31.785Z,94292.53
2022-08-22T10:19:00.713Z,94287.91
2022-08-22T10:21:24.723Z,94287.97
2022-08-22T10:23:51.215Z,94286.00
2022-08-22T10:26:23.036Z,94279.98
2022-08-22T10:28:44.062Z,94276.64
2022-08-22T10:31:10.475Z,94275.79
2022-08-22T10:33:36.892Z,94270.53
2022-08-22T10:36:04.939Z,94264.15
2022-08-22T10:38:29.750Z,94262.66
2022-08-22T10:40:56.176Z,94256.50
2022-08-22T10:43:28.593Z,94260.07
2022-08-22T10:45:49.073Z,94259.87
2022-08-22T10:48:15.483Z,94255.20
2022-08-22T10:50:42.979Z,94257.45
2022-08-22T10:53:08.316Z,94257.25
2022-08-22T10:55:34.752Z,94259.49
2022-08-22T10:58:01.175Z,94257.34
2022-08-22T11:00:27.582Z,94256.69
2022-08-22T11:02:53.993Z,94253.89
2022-08-22T11:05:20.524Z,94250.70
2022-08-22T11:07:48.585Z,94256.17
2022-08-22T11:10:13.388Z,94259.84
2022-08-22T11:12:41.626Z,94257.55
2022-08-22T11:15:06.227Z,94253.20
2022-08-22T11:17:34.655Z,94252.98
2022-08-22T11:19:59.123Z,94256.56
2022-08-22T11:22:25.529Z,94252.69
2022-08-22T11:24:57.079Z,94252.56
2022-08-22T11:27:20.847Z,94253.04
2022-08-22T11:29:44.825Z,94246.48
2022-08-22T11:32:11.258Z,94243.25
2022-08-22T11:34:37.724Z,94247.95
2022-08-22T11:37:04.124Z,94245.06
2022-08-22T11:39:30.530Z,94246.22
2022-08-22T11:41:57.711Z,94243.16
2022-08-22T11:44:23.355Z,94246.91
2022-08-22T11:46:49.789Z,94240.75
2022-08-22T11:49:16.237Z,94241.25
2022-08-22T11:51:42.622Z,94237.65
2022-08-22T11:54:09.029Z,94236.59
2022-08-22T11:56:35.522Z,94233.98
2022-08-22T11:59:01.924Z,94231.09
2022-08-22T12:01:28.333Z,94231.90
2022-08-22T12:03:58.581Z,94233.53
2022-08-22T12:06:21.164Z,94230.47
2022-08-22T12:08:47.573Z,94234.22
2022-08-22T12:11:13.990Z,94230.64
2022-08-22T12:13:40.404Z,94227.61
2022-08-22T12:16:06.807Z,94223.70
2022-08-22T12:18:33.217Z,94226.16
2022-08-22T12:20:59.623Z,94224.52
2022-08-22T12:23:43.391Z,94216.80
2022-08-22T12:25:52.500Z,94217.41
2022-08-22T12:28:20.457Z,94202.72
2022-08-22T12:30:45.486Z,94200.98
2022-08-22T12:33:13.190Z,94202.72
2022-08-22T12:35:38.324Z,94195.94
2022-08-22T12:38:29.428Z,94187.23
2022-08-22T12:40:31.288Z,94184.49
2022-08-22T12:42:57.652Z,94178.97
2022-08-22T12:45:24.087Z,94180.64
2022-08-22T12:47:50.516Z,94169.72
2022-08-22T12:50:16.936Z,94161.40
2022-08-22T12:52:44.267Z,94160.24
2022-08-22T12:55:09.967Z,94160.52
2022-08-22T12:57:36.460Z,94167.31
2022-08-22T13:00:02.892Z,94168.78
2022-08-22T13:02:29.795Z,94172.14
2022-08-22T13:04:55.718Z,94167.77
2022-08-22T13:07:22.668Z,94168.91
2022-08-22T13:09:48.601Z,94166.33
2022-08-22T13:12:15.059Z,94180.58
2022-08-22T13:14:41.492Z,94192.11
2022-08-22T13:17:23.842Z,94200.00
2022-08-22T13:19:34.375Z,94205.95
2022-08-22T13:22:00.805Z,94206.77
2022-08-22T13:24:39.048Z,94209.66
2022-08-22T13:26:53.710Z,94205.95
2022-08-22T13:29:27.494Z,94206.42
2022-08-22T13:31:46.611Z,94216.12
2022-08-22T13:34:12.993Z,94238.59
2022-08-22T13:36:39.391Z,94241.45
2022-08-22T13:39:05.772Z,94241.92
2022-08-22T13:41:32.165Z,94235.97
2022-08-22T13:43:58.549Z,94230.30
2022-08-22T13:46:24.941Z,94242.69
2022-08-22T13:48:51.327Z,94244.45
2022-08-22T13:51:17.707Z,94254.15
2022-08-22T13:53:48.973Z,94268.67
2022-08-22T13:56:15.672Z,94277.89
2022-08-22T13:58:36.982Z,94284.81
2022-08-22T14:01:03.380Z,94291.09
2022-08-22T14:03:29.757Z,94290.59
2022-08-22T14:05:59.060Z,94294.69
2022-08-22T14:08:22.565Z,94298.84
2022-08-22T14:10:52.222Z,94300.92
2022-08-22T14:13:15.332Z,94305.54
2022-08-22T14:15:45.374Z,94308.33
2022-08-22T14:18:08.247Z,94308.03
2022-08-22T14:20:34.595Z,94309.33
2022-08-22T14:23:04.159Z,94319.08
2022-08-22T14:25:27.520Z,94316.48
2022-08-22T14:27:53.909Z,94327.94
2022-08-22T14:30:20.292Z,94320.48
2022-08-22T14:32:46.680Z,94324.84
2022-08-22T14:35:21.538Z,94316.73
2022-08-22T14:37:40.031Z,94309.08
2022-08-22T14:40:05.930Z,94310.53
2022-08-22T14:42:32.307Z,94309.67
2022-08-22T14:44:58.678Z,94309.50
2022-08-22T14:47:32.248Z,94300.33
2022-08-22T14:49:51.494Z,94298.86
2022-08-22T14:52:19.455Z,94306.97
2022-08-22T14:54:44.315Z,94309.23
2022-08-22T14:57:11.282Z,94310.23
2022-08-22T14:59:37.677Z,94300.70
2022-08-22T15:02:04.093Z,94298.44
2022-08-22T15:04:30.697Z,94304.83
2022-08-22T15:06:57.831Z,94303.95
2022-08-22T15:09:23.493Z,94302.05
2022-08-22T15:11:49.881Z,94297.82
2022-08-22T15:14:16.262Z,94299.80
2022-08-22T15:16:42.644Z,94293.89
2022-08-22T15:19:09.044Z,94287.08
2022-08-22T15:21:37.232Z,94282.38
2022-08-22T15:24:01.816Z,94279.11
2022-08-22T15:26:28.224Z,94275.89
2022-08-22T15:28:54.581Z,94273.34
2022-08-22T15:31:21.045Z,94276.23
2022-08-22T15:33:47.437Z,94274.59
2022-08-22T15:36:15.693Z,94272.17
2022-08-22T15:38:40.212Z,94280.10
2022-08-22T15:41:06.606Z,94276.23
2022-08-22T15:43:35.021Z,94280.10
2022-08-22T15:45:59.401Z,94286.61
2022-08-22T15:48:25.868Z,94289.93
2022-08-22T15:50:52.297Z,94286.80
2022-08-22T15:53:18.675Z,94293.52
2022-08-22T15:55:45.076Z,94289.77
2022-08-22T15:58:12.827Z,94294.08
2022-08-22T16:00:43.232Z,94295.88
2022-08-22T16:03:04.312Z,94303.47
2022-08-22T16:05:30.755Z,94303.42
2022-08-22T16:07:57.149Z,94302.73
2022-08-22T16:10:23.528Z,94313.59
2022-08-22T16:12:49.942Z,94314.75
2022-08-22T16:15:16.332Z,94319.32
2022-08-22T16:17:42.725Z,94324.45
2022-08-22T16:20:10.048Z,94327.33
2022-08-22T16:22:36.451Z,94333.45
2022-08-22T16:25:01.897Z,94335.24
2022-08-22T16:27:28.279Z,94336.03
2022-08-22T16:29:54.657Z,94337.53
2022-08-22T16:32:21.054Z,94340.30
2022-08-22T16:34:47.462Z,94337.88
2022-08-22T16:37:13.928Z,94334.19
2022-08-22T16:39:40.362Z,94332.77
2022-08-22T16:42:06.719Z,94327.12
2022-08-22T16:44:33.103Z,94329.71
2022-08-22T16:46:59.567Z,94325.52
2022-08-22T16:49:25.941Z,94326.00
2022-08-22T16:51:52.329Z,94323.03
2022-08-22T16:54:18.750Z,94323.89
2022-08-22T16:56:45.139Z,94326.59
2022-08-22T16:59:22.920Z,94322.77
2022-08-22T17:01:37.980Z,94325.19
2022-08-22T17:04:04.310Z,94323.76
2022-08-22T17:06:30.747Z,94316.48
2022-08-22T17:08:57.125Z,94319.54
2022-08-22T17:11:23.510Z,94316.61
2022-08-22T17:13:49.926Z,94312.12
2022-08-22T17:16:16.321Z,94320.48
2022-08-22T17:18:43.895Z,94314.89
2022-08-22T17:21:09.091Z,94309.55
2022-08-22T17:23:35.469Z,94311.14
2022-08-22T17:26:01.854Z,94307.95
2022-08-22T17:28:31.186Z,94311.96
2022-08-22T17:30:54.636Z,94310.83
2022-08-22T17:33:21.025Z,94313.85
2022-08-22T17:35:47.435Z,94313.21
2022-08-22T17:38:13.819Z,94321.96
2022-08-22T17:40:40.202Z,94317.25
2022-08-22T17:43:06.603Z,94318.72
2022-08-22T17:45:32.995Z,94326.91
2022-08-22T17:47:59.527Z,94332.80
2022-08-22T17:50:25.797Z,94330.70
2022-08-22T17:52:52.179Z,94334.87
2022-08-22T17:55:18.567Z,94339.10
2022-08-22T17:57:44.959Z,94340.22
2022-08-22T18:00:11.347Z,94334.09
2022-08-22T18:02:37.730Z,94334.53
2022-08-22T18:05:04.122Z,94336.52
2022-08-22T18:07:30.502Z,94338.15
2022-08-22T18:09:56.920Z,94343.63
2022-08-22T18:12:23.295Z,94353.70
2022-08-22T18:14:49.684Z,94354.48
2022-08-22T18:17:16.062Z,94359.86
2022-08-22T18:19:42.621Z,94365.04
2022-08-22T18:22:09.045Z,94363.13
2022-08-22T18:24:35.521Z,94366.20
2022-08-22T18:27:01.911Z,94363.13
2022-08-22T18:29:28.299Z,94370.76
2022-08-22T18:31:54.674Z,94379.64
2022-08-22T18:34:21.059Z,94380.94
2022-08-22T18:36:47.440Z,94376.58
2022-08-22T18:39:13.824Z,94379.98
2022-08-22T18:41:40.201Z,94381.45
2022-08-22T18:44:06.615Z,94386.15
2022-08-22T18:46:32.996Z,94384.86
2022-08-22T18:49:15.045Z,94391.16
2022-08-22T18:51:25.868Z,94390.84
2022-08-22T18:53:52.246Z,94385.98
2022-08-22T18:56:18.630Z,94389.86
2022-08-22T18:58:45.049Z,94398.78
2022-08-22T19:01:11.470Z,94403.13
2022-08-22T19:03:37.842Z,94408.17
2022-08-22T19:06:04.321Z,94402.66
2022-08-22T19:08:30.691Z,94405.24
2022-08-22T19:10:57.074Z,94404.94
2022-08-22T19:13:23.512Z,94408.48
2022-08-22T19:15:49.919Z,94409.46
2022-08-22T19:18:16.300Z,94408.95
2022-08-22T19:20:42.680Z,94419.64
2022-08-22T19:23:09.067Z,94423.69
2022-08-22T19:25:35.453Z,94430.94
2022-08-22T19:28:01.842Z,94421.88
2022-08-22T19:30:28.336Z,94428.22
2022-08-22T19:32:54.780Z,94420.45
2022-08-22T19:35:21.120Z,94421.41
2022-08-22T19:37:47.540Z,94420.94
2022-08-22T19:40:13.957Z,94417.53
2022-08-22T19:42:40.306Z,94425.16
2022-08-22T19:45:06.697Z,94429.51
2022-08-22T19:47:33.091Z,94425.62
2022-08-22T19:49:59.471Z,94425.62
2022-08-22T19:52:25.856Z,94415.77
2022-08-22T19:54:52.235Z,94420.45
2022-08-22T19:57:18.619Z,94414.47
2022-08-22T19:59:50.689Z,94415.29
2022-08-22T20:02:11.407Z,94417.05
2022-08-22T20:04:37.791Z,94414.47
2022-08-22T20:07:04.183Z,94420.59
2022-08-22T20:09:30.562Z,94422.23
2022-08-22T20:11:58.169Z,94421.88
2022-08-22T20:14:29.958Z,94413.81
2022-08-22T20:16:49.756Z,94408.48
2022-08-22T20:19:16.134Z,94411.89
2022-08-22T20:21:42.519Z,94406.37
2022-08-22T20:24:08.887Z,94405.89
2022-08-22T20:26:47.526Z,94403.48
2022-08-22T20:29:03.661Z,94399.59
2022-08-22T20:31:30.050Z,94404.77
2022-08-22T20:33:56.430Z,94408.95
2022-08-22T20:36:28.798Z,94407.19
2022-08-22T20:38:55.709Z,94408.48
2022-08-22T20:41:20.669Z,94411.89
2022-08-22T20:43:42.021Z,94413.66
2022-08-22T20:46:08.402Z,94417.05
2022-08-22T20:48:34.786Z,94419.17
2022-08-22T20:51:01.168Z,94421.27
2022-08-22T20:53:27.550Z,94423.05
2022-08-22T20:55:53.940Z,94427.27
2022-08-22T20:58:20.481Z,94432.09
2022-08-22T21:00:46.908Z,94435.02
2022-08-22T21:03:13.248Z,94438.91
2022-08-22T21:05:39.762Z,94431.75
2022-08-22T21:08:06.160Z,94430.80
2022-08-22T21:10:32.619Z,94429.51
2022-08-22T21:12:58.996Z,94426.11
2022-08-22T21:15:25.404Z,94420.80
2022-08-22T21:17:51.780Z,94417.88
2022-08-22T21:20:18.162Z,94416.41
2022-08-22T21:22:44.579Z,94415.77
2022-08-22T21:25:10.962Z,94415.13
2022-08-22T21:27:37.451Z,94415.63
2022-08-22T21:30:03.832Z,94416.11
2022-08-22T21:32:30.213Z,94424.99
2022-08-22T21:34:56.596Z,94424.99
2022-08-22T21:37:24.657Z,94426.28
2022-08-22T21:39:49.382Z,94426.28
2022-08-22T21:42:15.774Z,94429.22
2022-08-22T21:44:42.152Z,94423.70
2022-08-22T21:47:08.542Z,94426.28
2022-08-22T21:49:34.924Z,94421.80
2022-08-22T21:52:01.306Z,94420.80
2022-08-22T21:54:27.688Z,94415.13
2022-08-22T21:56:54.239Z,94421.93
2022-08-22T21:59:20.638Z,94414.65
2022-08-22T22:01:47.029Z,94407.70
2022-08-22T22:04:13.410Z,94406.07
2022-08-22T22:06:39.791Z,94399.13
2022-08-22T22:09:06.177Z,94399.13
2022-08-22T22:11:32.568Z,94403.99
2022-08-22T22:13:58.950Z,94400.11
2022-08-22T22:16:25.398Z,94397.02
2022-08-22T22:18:51.780Z,94398.82
2022-08-22T22:21:18.242Z,94395.12
2022-08-22T22:23:44.636Z,94395.73
2022-08-22T22:26:11.032Z,94393.14
2022-08-22T22:28:37.412Z,94387.97
2022-08-22T22:31:03.795Z,94383.62
2022-08-22T22:33:30.173Z,94376.84
2022-08-22T22:35:56.559Z,94368.10
2022-08-22T22:38:24.229Z,94364.22
2022-08-22T22:40:49.381Z,94364.22
2022-08-22T22:43:15.757Z,94358.91
2022-08-22T22:45:42.162Z,94359.86
2022-08-22T22:48:08.541Z,94360.20
2022-08-22T22:50:34.929Z,94358.23
2022-08-22T22:53:01.306Z,94362.45
2022-08-22T22:55:27.706Z,94366.33
2022-08-22T22:57:59.097Z,94359.05
2022-08-22T23:00:20.471Z,94361.98
2022-08-22T23:02:46.848Z,94373.95
2022-08-22T23:05:13.245Z,94371.50
2022-08-22T23:07:39.623Z,94371.67
2022-08-22T23:10:06.012Z,94376.67
2022-08-22T23:12:32.419Z,94371.50
2022-08-22T23:14:58.799Z,94370.08
2022-08-22T23:17:25.208Z,94368.10
2022-08-22T23:19:51.583Z,94371.50
2022-08-22T23:22:17.970Z,94377.49
2022-08-22T23:24:44.408Z,94385.73
2022-08-22T23:27:10.780Z,94391.58
2022-08-22T23:29:38.186Z,94391.72
2022-08-22T23:32:04.563Z,94390.77
2022-08-22T23:34:30.944Z,94398.83
2022-08-22T23:36:57.320Z,94389.47
2022-08-22T23:39:23.731Z,94392.37
2022-08-22T23:41:50.108Z,94394.95
2022-08-22T23:44:16.488Z,94401.11
2022-08-22T23:46:42.921Z,94393.01
2022-08-22T23:49:09.313Z,94396.41
2022-08-22T23:51:35.691Z,94401.92
2022-08-22T23:54:02.127Z,94402.06
2022-08-22T23:56:28.508Z,94405.47
2022-08-22T23:58:54.989Z,94404.30
